sensor_id;sensor_type;location;lat;lon;timestamp;P1;durP1;ratioP1;P2;durP2;ratioP2
1380;SDS011;684;48.342;10.096;2024-01-15T00:01:53;21.87;;;11.27;;
1380;SDS011;684;48.342;10.096;2024-01-15T00:04:19;26.70;;;11.13;;
1380;SDS011;684;48.342;10.096;2024-01-15T00:06:46;22.10;;;10.70;;
1380;SDS011;684;48.342;10.096;2024-01-15T00:09:14;22.40;;;11.20;;
1380;SDS011;684;48.342;10.096;2024-01-15T00:11:41;21.40;;;12.70;;
1380;SDS011;684;48.342;10.096;2024-01-15T00:14:08;21.10;;;11.10;;
1380;SDS011;684;48.342;10.096;2024-01-15T00:16:35;22.47;;;11.50;;
1380;SDS011;684;48.342;10.096;2024-01-15T00:19:02;25.83;;;12.20;;
1380;SDS011;684;48.342;10.096;2024-01-15T00:21:28;23.20;;;12.13;;
1380;SDS011;684;48.342;10.096;2024-01-15T00:23:55;19.63;;;10.77;;
1380;SDS011;684;48.342;10.096;2024-01-15T00:26:23;21.50;;;11.50;;
1380;SDS011;684;48.342;10.096;2024-01-15T00:28:50;23.60;;;11.50;;
1380;SDS011;684;48.342;10.096;2024-01-15T00:31:17;23.90;;;13.17;;
1380;SDS011;684;48.342;10.096;2024-01-15T00:33:44;22.43;;;11.40;;
1380;SDS011;684;48.342;10.096;2024-01-15T00:36:10;20.00;;;10.43;;
1380;SDS011;684;48.342;10.096;2024-01-15T00:38:37;21.00;;;11.90;;
1380;SDS011;684;48.342;10.096;2024-01-15T00:41:04;27.17;;;12.17;;
1380;SDS011;684;48.342;10.096;2024-01-15T00:43:32;21.80;;;10.40;;
1380;SDS011;684;48.342;10.096;2024-01-15T00:46:01;21.77;;;11.70;;
1380;SDS011;684;48.342;10.096;2024-01-15T00:48:28;17.83;;;9.63;;
1380;SDS011;684;48.342;10.096;2024-01-15T00:50:54;19.57;;;10.73;;
1380;SDS011;684;48.342;10.096;2024-01-15T00:53:21;22.33;;;10.87;;
1380;SDS011;684;48.342;10.096;2024-01-15T00:55:48;19.40;;;10.47;;
1380;SDS011;684;48.342;10.096;2024-01-15T00:58:15;21.73;;;10.20;;
1380;SDS011;684;48.342;10.096;2024-01-15T01:00:43;21.63;;;10.57;;
1380;SDS011;684;48.342;10.096;2024-01-15T01:03:10;25.53;;;12.60;;
1380;SDS011;684;48.342;10.096;2024-01-15T01:05:37;20.47;;;10.83;;
1380;SDS011;684;48.342;10.096;2024-01-15T01:08:04;18.80;;;10.50;;
1380;SDS011;684;48.342;10.096;2024-01-15T01:10:31;19.90;;;10.63;;
1380;SDS011;684;48.342;10.096;2024-01-15T01:12:57;24.03;;;11.20;;
1380;SDS011;684;48.342;10.096;2024-01-15T01:15:24;21.50;;;9.43;;
1380;SDS011;684;48.342;10.096;2024-01-15T01:17:53;19.63;;;9.60;;
1380;SDS011;684;48.342;10.096;2024-01-15T01:20:20;19.63;;;10.37;;
1380;SDS011;684;48.342;10.096;2024-01-15T01:22:47;19.63;;;10.53;;
1380;SDS011;684;48.342;10.096;2024-01-15T01:25:13;20.20;;;9.93;;
1380;SDS011;684;48.342;10.096;2024-01-15T01:27:40;26.63;;;11.53;;
1380;SDS011;684;48.342;10.096;2024-01-15T01:30:07;20.03;;;10.53;;
1380;SDS011;684;48.342;10.096;2024-01-15T01:32:34;22.57;;;11.93;;
1380;SDS011;684;48.342;10.096;2024-01-15T01:35:03;21.73;;;10.90;;
1380;SDS011;684;48.342;10.096;2024-01-15T01:37:30;27.17;;;10.70;;
1380;SDS011;684;48.342;10.096;2024-01-15T01:39:58;23.67;;;11.93;;
1380;SDS011;684;48.342;10.096;2024-01-15T01:42:24;23.63;;;9.97;;
1380;SDS011;684;48.342;10.096;2024-01-15T01:44:51;21.67;;;9.43;;
1380;SDS011;684;48.342;10.096;2024-01-15T01:47:18;23.60;;;11.93;;
1380;SDS011;684;48.342;10.096;2024-01-15T01:49:45;26.50;;;11.97;;
1380;SDS011;684;48.342;10.096;2024-01-15T01:52:13;19.90;;;9.80;;
1380;SDS011;684;48.342;10.096;2024-01-15T01:54:41;18.60;;;9.53;;
1380;SDS011;684;48.342;10.096;2024-01-15T01:57:08;22.57;;;11.40;;
1380;SDS011;684;48.342;10.096;2024-01-15T01:59:35;21.03;;;10.60;;
1380;SDS011;684;48.342;10.096;2024-01-15T02:02:02;21.20;;;9.97;;
1380;SDS011;684;48.342;10.096;2024-01-15T02:04:29;19.90;;;9.67;;
1380;SDS011;684;48.342;10.096;2024-01-15T02:06:58;22.30;;;11.23;;
1380;SDS011;684;48.342;10.096;2024-01-15T02:09:26;23.53;;;11.20;;
1380;SDS011;684;48.342;10.096;2024-01-15T02:11:53;20.80;;;11.13;;
1380;SDS011;684;48.342;10.096;2024-01-15T02:14:20;25.33;;;10.43;;
1380;SDS011;684;48.342;10.096;2024-01-15T02:16:47;20.47;;;11.57;;
1380;SDS011;684;48.342;10.096;2024-01-15T02:19:14;24.50;;;10.80;;
1380;SDS011;684;48.342;10.096;2024-01-15T02:21:42;24.70;;;11.20;;
1380;SDS011;684;48.342;10.096;2024-01-15T02:24:10;19.80;;;9.20;;
1380;SDS011;684;48.342;10.096;2024-01-15T02:26:37;23.60;;;11.30;;
1380;SDS011;684;48.342;10.096;2024-01-15T02:29:04;22.17;;;10.70;;
1380;SDS011;684;48.342;10.096;2024-01-15T02:31:33;23.17;;;10.13;;
1380;SDS011;684;48.342;10.096;2024-01-15T02:34:00;22.30;;;10.53;;
1380;SDS011;684;48.342;10.096;2024-01-15T02:36:26;22.30;;;11.07;;
1380;SDS011;684;48.342;10.096;2024-01-15T02:38:53;20.90;;;11.03;;
1380;SDS011;684;48.342;10.096;2024-01-15T02:41:21;15.70;;;7.80;;
1380;SDS011;684;48.342;10.096;2024-01-15T02:43:48;23.23;;;10.97;;
1380;SDS011;684;48.342;10.096;2024-01-15T02:46:15;19.17;;;9.60;;
1380;SDS011;684;48.342;10.096;2024-01-15T02:48:42;17.07;;;9.30;;
1380;SDS011;684;48.342;10.096;2024-01-15T02:51:09;18.67;;;8.57;;
1380;SDS011;684;48.342;10.096;2024-01-15T02:53:35;20.00;;;9.60;;
1380;SDS011;684;48.342;10.096;2024-01-15T02:56:02;19.70;;;9.40;;
1380;SDS011;684;48.342;10.096;2024-01-15T02:58:31;16.67;;;8.17;;
1380;SDS011;684;48.342;10.096;2024-01-15T03:00:58;20.27;;;8.90;;
1380;SDS011;684;48.342;10.096;2024-01-15T03:03:24;15.30;;;8.80;;
1380;SDS011;684;48.342;10.096;2024-01-15T03:05:51;18.53;;;9.37;;
1380;SDS011;684;48.342;10.096;2024-01-15T03:08:18;19.40;;;8.77;;
1380;SDS011;684;48.342;10.096;2024-01-15T03:10:45;15.57;;;8.10;;
1380;SDS011;684;48.342;10.096;2024-01-15T03:13:11;18.47;;;9.30;;
1380;SDS011;684;48.342;10.096;2024-01-15T03:15:40;16.53;;;7.90;;
1380;SDS011;684;48.342;10.096;2024-01-15T03:18:06;16.20;;;7.40;;
1380;SDS011;684;48.342;10.096;2024-01-15T03:20:33;16.37;;;8.20;;
1380;SDS011;684;48.342;10.096;2024-01-15T03:23:00;15.07;;;7.47;;
1380;SDS011;684;48.342;10.096;2024-01-15T03:25:27;17.50;;;8.17;;
1380;SDS011;684;48.342;10.096;2024-01-15T03:27:53;13.83;;;6.53;;
1380;SDS011;684;48.342;10.096;2024-01-15T03:30:20;15.80;;;7.23;;
1380;SDS011;684;48.342;10.096;2024-01-15T03:32:48;17.83;;;7.20;;
1380;SDS011;684;48.342;10.096;2024-01-15T03:35:15;11.10;;;5.60;;
1380;SDS011;684;48.342;10.096;2024-01-15T03:37:42;16.63;;;7.20;;
1380;SDS011;684;48.342;10.096;2024-01-15T03:40:09;13.83;;;7.07;;
1380;SDS011;684;48.342;10.096;2024-01-15T03:42:36;17.77;;;7.97;;
1380;SDS011;684;48.342;10.096;2024-01-15T03:45:02;15.53;;;7.47;;
1380;SDS011;684;48.342;10.096;2024-01-15T03:47:30;13.73;;;7.00;;
1380;SDS011;684;48.342;10.096;2024-01-15T03:49:58;14.47;;;6.50;;
1380;SDS011;684;48.342;10.096;2024-01-15T03:52:25;20.03;;;7.63;;
1380;SDS011;684;48.342;10.096;2024-01-15T03:54:52;16.87;;;7.90;;
1380;SDS011;684;48.342;10.096;2024-01-15T03:57:18;12.90;;;7.07;;
1380;SDS011;684;48.342;10.096;2024-01-15T03:59:45;13.00;;;6.90;;
1380;SDS011;684;48.342;10.096;2024-01-15T04:02:12;12.10;;;6.23;;
1380;SDS011;684;48.342;10.096;2024-01-15T04:04:40;15.57;;;6.97;;
1380;SDS011;684;48.342;10.096;2024-01-15T04:07:08;12.50;;;6.17;;
1380;SDS011;684;48.342;10.096;2024-01-15T04:09:35;14.17;;;6.53;;
1380;SDS011;684;48.342;10.096;2024-01-15T04:12:02;13.90;;;6.83;;
1380;SDS011;684;48.342;10.096;2024-01-15T04:14:29;14.00;;;7.37;;
1380;SDS011;684;48.342;10.096;2024-01-15T04:16:56;13.50;;;6.90;;
1380;SDS011;684;48.342;10.096;2024-01-15T04:19:22;12.30;;;6.23;;
1380;SDS011;684;48.342;10.096;2024-01-15T04:21:49;15.50;;;7.00;;
1380;SDS011;684;48.342;10.096;2024-01-15T04:24:17;13.03;;;6.67;;
1380;SDS011;684;48.342;10.096;2024-01-15T04:26:44;15.10;;;7.03;;
1380;SDS011;684;48.342;10.096;2024-01-15T04:29:11;11.17;;;6.73;;
1380;SDS011;684;48.342;10.096;2024-01-15T04:31:38;11.90;;;5.50;;
1380;SDS011;684;48.342;10.096;2024-01-15T04:34:04;13.20;;;6.27;;
1380;SDS011;684;48.342;10.096;2024-01-15T04:36:31;13.73;;;5.40;;
1380;SDS011;684;48.342;10.096;2024-01-15T04:38:58;11.23;;;5.33;;
1380;SDS011;684;48.342;10.096;2024-01-15T04:41:26;14.07;;;5.67;;
1380;SDS011;684;48.342;10.096;2024-01-15T04:43:53;13.90;;;5.40;;
1380;SDS011;684;48.342;10.096;2024-01-15T04:46:19;14.60;;;6.30;;
1380;SDS011;684;48.342;10.096;2024-01-15T04:48:46;11.40;;;5.90;;
1380;SDS011;684;48.342;10.096;2024-01-15T04:51:13;13.20;;;6.23;;
1380;SDS011;684;48.342;10.096;2024-01-15T04:53:40;13.63;;;6.27;;
1380;SDS011;684;48.342;10.096;2024-01-15T04:56:07;10.20;;;5.00;;
1380;SDS011;684;48.342;10.096;2024-01-15T04:58:35;10.80;;;5.50;;
1380;SDS011;684;48.342;10.096;2024-01-15T05:01:02;13.43;;;5.43;;
1380;SDS011;684;48.342;10.096;2024-01-15T05:03:29;10.47;;;5.30;;
1380;SDS011;684;48.342;10.096;2024-01-15T05:05:56;9.67;;;4.77;;
1380;SDS011;684;48.342;10.096;2024-01-15T05:08:23;8.27;;;4.00;;
1380;SDS011;684;48.342;10.096;2024-01-15T05:10:50;9.97;;;4.57;;
1380;SDS011;684;48.342;10.096;2024-01-15T05:13:16;10.17;;;4.83;;
1380;SDS011;684;48.342;10.096;2024-01-15T05:15:45;8.00;;;3.93;;
1380;SDS011;684;48.342;10.096;2024-01-15T05:18:11;8.60;;;4.10;;
1380;SDS011;684;48.342;10.096;2024-01-15T05:20:38;10.50;;;4.40;;
1380;SDS011;684;48.342;10.096;2024-01-15T05:23:05;12.87;;;4.80;;
1380;SDS011;684;48.342;10.096;2024-01-15T05:25:32;10.00;;;4.30;;
1380;SDS011;684;48.342;10.096;2024-01-15T05:27:59;11.80;;;5.63;;
1380;SDS011;684;48.342;10.096;2024-01-15T05:30:26;11.37;;;5.03;;
1380;SDS011;684;48.342;10.096;2024-01-15T05:32:54;13.33;;;5.60;;
1380;SDS011;684;48.342;10.096;2024-01-15T05:35:20;11.40;;;5.10;;
1380;SDS011;684;48.342;10.096;2024-01-15T05:37:47;12.20;;;5.20;;
1380;SDS011;684;48.342;10.096;2024-01-15T05:40:14;14.80;;;6.10;;
1380;SDS011;684;48.342;10.096;2024-01-15T05:42:41;12.70;;;5.80;;
1380;SDS011;684;48.342;10.096;2024-01-15T05:45:08;11.00;;;5.53;;
1380;SDS011;684;48.342;10.096;2024-01-15T05:47:35;13.40;;;7.13;;
1380;SDS011;684;48.342;10.096;2024-01-15T05:50:03;12.80;;;6.97;;
1380;SDS011;684;48.342;10.096;2024-01-15T05:52:31;12.87;;;6.30;;
1380;SDS011;684;48.342;10.096;2024-01-15T05:54:58;13.83;;;6.67;;
1380;SDS011;684;48.342;10.096;2024-01-15T05:57:25;12.90;;;6.27;;
1380;SDS011;684;48.342;10.096;2024-01-15T05:59:52;12.17;;;6.23;;
1380;SDS011;684;48.342;10.096;2024-01-15T06:02:19;14.73;;;6.23;;
1380;SDS011;684;48.342;10.096;2024-01-15T06:04:46;15.87;;;7.47;;
1380;SDS011;684;48.342;10.096;2024-01-15T06:07:14;15.10;;;6.60;;
1380;SDS011;684;48.342;10.096;2024-01-15T06:09:41;16.23;;;7.00;;
1380;SDS011;684;48.342;10.096;2024-01-15T06:12:08;13.13;;;6.83;;
1380;SDS011;684;48.342;10.096;2024-01-15T06:14:35;14.13;;;6.27;;
1380;SDS011;684;48.342;10.096;2024-01-15T06:17:01;14.57;;;7.27;;
1380;SDS011;684;48.342;10.096;2024-01-15T06:19:28;16.73;;;8.77;;
1380;SDS011;684;48.342;10.096;2024-01-15T06:21:55;16.37;;;6.10;;
1380;SDS011;684;48.342;10.096;2024-01-15T06:24:23;15.50;;;7.10;;
1380;SDS011;684;48.342;10.096;2024-01-15T06:26:50;14.13;;;7.23;;
1380;SDS011;684;48.342;10.096;2024-01-15T06:29:17;13.77;;;7.67;;
1380;SDS011;684;48.342;10.096;2024-01-15T06:31:44;13.90;;;7.50;;
1380;SDS011;684;48.342;10.096;2024-01-15T06:34:11;13.63;;;6.67;;
1380;SDS011;684;48.342;10.096;2024-01-15T06:36:37;13.30;;;6.27;;
1380;SDS011;684;48.342;10.096;2024-01-15T06:39:04;15.60;;;7.47;;
1380;SDS011;684;48.342;10.096;2024-01-15T06:41:32;16.17;;;7.17;;
1380;SDS011;684;48.342;10.096;2024-01-15T06:43:59;16.20;;;8.40;;
1380;SDS011;684;48.342;10.096;2024-01-15T06:46:26;14.53;;;7.50;;
1380;SDS011;684;48.342;10.096;2024-01-15T06:48:53;12.70;;;6.50;;
1380;SDS011;684;48.342;10.096;2024-01-15T06:51:19;14.80;;;7.07;;
1380;SDS011;684;48.342;10.096;2024-01-15T06:53:46;17.47;;;8.50;;
1380;SDS011;684;48.342;10.096;2024-01-15T06:56:13;14.13;;;7.23;;
1380;SDS011;684;48.342;10.096;2024-01-15T06:58:41;15.50;;;7.70;;
1380;SDS011;684;48.342;10.096;2024-01-15T07:01:08;16.43;;;7.53;;
1380;SDS011;684;48.342;10.096;2024-01-15T07:03:35;13.67;;;7.10;;
1380;SDS011;684;48.342;10.096;2024-01-15T07:06:02;15.63;;;7.47;;
1380;SDS011;684;48.342;10.096;2024-01-15T07:08:29;15.70;;;7.57;;
1380;SDS011;684;48.342;10.096;2024-01-15T07:10:56;17.13;;;7.30;;
1380;SDS011;684;48.342;10.096;2024-01-15T07:13:22;14.63;;;7.60;;
1380;SDS011;684;48.342;10.096;2024-01-15T07:15:51;15.23;;;7.47;;
1380;SDS011;684;48.342;10.096;2024-01-15T07:18:17;16.30;;;8.13;;
1380;SDS011;684;48.342;10.096;2024-01-15T07:20:44;18.00;;;7.90;;
1380;SDS011;684;48.342;10.096;2024-01-15T07:23:11;15.30;;;7.33;;
1380;SDS011;684;48.342;10.096;2024-01-15T07:25:38;15.27;;;7.90;;
1380;SDS011;684;48.342;10.096;2024-01-15T07:28:05;14.37;;;7.50;;
1380;SDS011;684;48.342;10.096;2024-01-15T07:30:31;17.23;;;8.10;;
1380;SDS011;684;48.342;10.096;2024-01-15T07:33:00;14.03;;;6.73;;
1380;SDS011;684;48.342;10.096;2024-01-15T07:35:29;15.43;;;7.97;;
1380;SDS011;684;48.342;10.096;2024-01-15T07:37:56;20.50;;;7.70;;
1380;SDS011;684;48.342;10.096;2024-01-15T07:40:23;14.20;;;6.73;;
1380;SDS011;684;48.342;10.096;2024-01-15T07:42:49;16.53;;;7.50;;
1380;SDS011;684;48.342;10.096;2024-01-15T07:45:16;15.30;;;7.20;;
1380;SDS011;684;48.342;10.096;2024-01-15T07:47:43;14.20;;;6.60;;
1380;SDS011;684;48.342;10.096;2024-01-15T07:50:11;11.43;;;5.73;;
1380;SDS011;684;48.342;10.096;2024-01-15T07:52:38;13.07;;;6.83;;
1380;SDS011;684;48.342;10.096;2024-01-15T07:55:07;12.00;;;6.90;;
1380;SDS011;684;48.342;10.096;2024-01-15T07:57:33;12.37;;;6.50;;
1380;SDS011;684;48.342;10.096;2024-01-15T08:00:01;15.37;;;6.50;;
1380;SDS011;684;48.342;10.096;2024-01-15T08:02:30;13.20;;;7.07;;
1380;SDS011;684;48.342;10.096;2024-01-15T08:04:57;12.73;;;6.50;;
1380;SDS011;684;48.342;10.096;2024-01-15T08:07:25;14.83;;;6.70;;
1380;SDS011;684;48.342;10.096;2024-01-15T08:09:52;10.50;;;5.67;;
1380;SDS011;684;48.342;10.096;2024-01-15T08:12:19;12.47;;;6.97;;
1380;SDS011;684;48.342;10.096;2024-01-15T08:14:47;11.97;;;5.87;;
1380;SDS011;684;48.342;10.096;2024-01-15T08:17:14;9.07;;;4.70;;
1380;SDS011;684;48.342;10.096;2024-01-15T08:19:41;15.83;;;6.33;;
1380;SDS011;684;48.342;10.096;2024-01-15T08:22:08;11.67;;;5.80;;
1380;SDS011;684;48.342;10.096;2024-01-15T08:24:37;10.93;;;5.60;;
1380;SDS011;684;48.342;10.096;2024-01-15T08:27:04;10.93;;;4.33;;
1380;SDS011;684;48.342;10.096;2024-01-15T08:29:31;13.50;;;6.13;;
1380;SDS011;684;48.342;10.096;2024-01-15T08:31:59;11.87;;;6.50;;
1380;SDS011;684;48.342;10.096;2024-01-15T08:34:26;12.00;;;6.10;;
1380;SDS011;684;48.342;10.096;2024-01-15T08:36:54;11.83;;;5.07;;
1380;SDS011;684;48.342;10.096;2024-01-15T08:39:21;11.97;;;5.30;;
1380;SDS011;684;48.342;10.096;2024-01-15T08:41:49;9.67;;;5.33;;
1380;SDS011;684;48.342;10.096;2024-01-15T08:44:16;13.20;;;5.77;;
1380;SDS011;684;48.342;10.096;2024-01-15T08:46:43;12.13;;;5.40;;
1380;SDS011;684;48.342;10.096;2024-01-15T08:49:10;10.63;;;4.53;;
1380;SDS011;684;48.342;10.096;2024-01-15T08:51:36;9.47;;;4.30;;
1380;SDS011;684;48.342;10.096;2024-01-15T08:54:04;8.60;;;4.30;;
1380;SDS011;684;48.342;10.096;2024-01-15T08:56:33;9.40;;;4.57;;
1380;SDS011;684;48.342;10.096;2024-01-15T08:59:01;8.67;;;4.30;;
1380;SDS011;684;48.342;10.096;2024-01-15T09:01:28;11.63;;;4.37;;
1380;SDS011;684;48.342;10.096;2024-01-15T09:03:55;9.73;;;4.50;;
1380;SDS011;684;48.342;10.096;2024-01-15T09:06:23;7.17;;;3.70;;
1380;SDS011;684;48.342;10.096;2024-01-15T09:08:49;8.17;;;4.10;;
1380;SDS011;684;48.342;10.096;2024-01-15T09:11:16;9.33;;;4.10;;
1380;SDS011;684;48.342;10.096;2024-01-15T09:13:43;13.07;;;3.83;;
1380;SDS011;684;48.342;10.096;2024-01-15T09:16:11;7.03;;;3.23;;
1380;SDS011;684;48.342;10.096;2024-01-15T09:18:38;7.83;;;3.97;;
1380;SDS011;684;48.342;10.096;2024-01-15T09:21:04;7.63;;;3.80;;
1380;SDS011;684;48.342;10.096;2024-01-15T09:23:31;7.23;;;3.47;;
1380;SDS011;684;48.342;10.096;2024-01-15T09:25:58;7.87;;;4.43;;
1380;SDS011;684;48.342;10.096;2024-01-15T09:28:24;7.43;;;3.47;;
1380;SDS011;684;48.342;10.096;2024-01-15T09:30:51;7.07;;;3.10;;
1380;SDS011;684;48.342;10.096;2024-01-15T09:33:19;9.73;;;2.90;;
1380;SDS011;684;48.342;10.096;2024-01-15T09:35:46;6.73;;;3.27;;
1380;SDS011;684;48.342;10.096;2024-01-15T09:38:13;7.70;;;3.43;;
1380;SDS011;684;48.342;10.096;2024-01-15T09:40:40;6.50;;;2.93;;
1380;SDS011;684;48.342;10.096;2024-01-15T09:43:11;6.97;;;3.20;;
1380;SDS011;684;48.342;10.096;2024-01-15T09:45:39;5.77;;;2.77;;
1380;SDS011;684;48.342;10.096;2024-01-15T09:48:06;6.30;;;3.00;;
1380;SDS011;684;48.342;10.096;2024-01-15T09:50:35;8.27;;;3.20;;
1380;SDS011;684;48.342;10.096;2024-01-15T09:53:02;6.60;;;3.00;;
1380;SDS011;684;48.342;10.096;2024-01-15T09:55:30;6.00;;;2.50;;
1380;SDS011;684;48.342;10.096;2024-01-15T09:57:57;6.40;;;2.70;;
1380;SDS011;684;48.342;10.096;2024-01-15T10:00:27;5.77;;;2.40;;
1380;SDS011;684;48.342;10.096;2024-01-15T10:02:56;7.83;;;2.57;;
1380;SDS011;684;48.342;10.096;2024-01-15T10:05:23;6.67;;;2.53;;
1380;SDS011;684;48.342;10.096;2024-01-15T10:07:51;5.57;;;2.47;;
1380;SDS011;684;48.342;10.096;2024-01-15T10:10:20;5.50;;;2.43;;
1380;SDS011;684;48.342;10.096;2024-01-15T10:12:48;5.40;;;2.60;;
1380;SDS011;684;48.342;10.096;2024-01-15T10:15:15;5.67;;;2.63;;
1380;SDS011;684;48.342;10.096;2024-01-15T10:17:42;5.60;;;2.77;;
1380;SDS011;684;48.342;10.096;2024-01-15T10:20:10;5.53;;;2.40;;
1380;SDS011;684;48.342;10.096;2024-01-15T10:22:39;6.70;;;2.73;;
1380;SDS011;684;48.342;10.096;2024-01-15T10:25:09;5.47;;;2.50;;
1380;SDS011;684;48.342;10.096;2024-01-15T10:27:36;6.63;;;3.00;;
1380;SDS011;684;48.342;10.096;2024-01-15T10:30:03;5.47;;;2.20;;
1380;SDS011;684;48.342;10.096;2024-01-15T10:32:31;6.47;;;2.60;;
1380;SDS011;684;48.342;10.096;2024-01-15T10:34:58;4.30;;;2.00;;
1380;SDS011;684;48.342;10.096;2024-01-15T10:37:24;6.27;;;2.37;;
1380;SDS011;684;48.342;10.096;2024-01-15T10:39:52;4.67;;;2.20;;
1380;SDS011;684;48.342;10.096;2024-01-15T10:42:20;8.87;;;2.73;;
1380;SDS011;684;48.342;10.096;2024-01-15T10:44:47;5.53;;;2.30;;
1380;SDS011;684;48.342;10.096;2024-01-15T10:47:13;4.30;;;1.90;;
1380;SDS011;684;48.342;10.096;2024-01-15T10:49:41;5.97;;;2.60;;
1380;SDS011;684;48.342;10.096;2024-01-15T10:52:08;7.20;;;2.50;;
1380;SDS011;684;48.342;10.096;2024-01-15T10:54:35;5.87;;;2.17;;
1380;SDS011;684;48.342;10.096;2024-01-15T10:57:04;4.70;;;2.13;;
1380;SDS011;684;48.342;10.096;2024-01-15T10:59:33;3.90;;;1.70;;
1380;SDS011;684;48.342;10.096;2024-01-15T11:02:02;4.70;;;1.90;;
1380;SDS011;684;48.342;10.096;2024-01-15T11:04:31;6.80;;;2.10;;
1380;SDS011;684;48.342;10.096;2024-01-15T11:06:58;6.30;;;1.70;;
1380;SDS011;684;48.342;10.096;2024-01-15T11:09:26;5.60;;;2.07;;
1380;SDS011;684;48.342;10.096;2024-01-15T11:11:53;5.50;;;1.90;;
1380;SDS011;684;48.342;10.096;2024-01-15T11:14:35;8.60;;;1.73;;
1380;SDS011;684;48.342;10.096;2024-01-15T11:17:04;3.77;;;1.40;;
1380;SDS011;684;48.342;10.096;2024-01-15T11:19:37;6.03;;;2.33;;
1380;SDS011;684;48.342;10.096;2024-01-15T11:22:08;3.67;;;1.47;;
1380;SDS011;684;48.342;10.096;2024-01-15T11:24:37;6.67;;;2.53;;
1380;SDS011;684;48.342;10.096;2024-01-15T11:27:04;5.37;;;2.27;;
1380;SDS011;684;48.342;10.096;2024-01-15T11:29:32;6.50;;;2.90;;
1380;SDS011;684;48.342;10.096;2024-01-15T11:32:02;5.30;;;2.50;;
1380;SDS011;684;48.342;10.096;2024-01-15T11:34:49;11.00;;;3.43;;
1380;SDS011;684;48.342;10.096;2024-01-15T11:37:17;6.93;;;3.10;;
1380;SDS011;684;48.342;10.096;2024-01-15T11:39:44;5.13;;;2.63;;
1380;SDS011;684;48.342;10.096;2024-01-15T11:42:12;11.47;;;5.53;;
1380;SDS011;684;48.342;10.096;2024-01-15T11:44:42;8.20;;;4.67;;
1380;SDS011;684;48.342;10.096;2024-01-15T11:47:10;7.47;;;3.80;;
1380;SDS011;684;48.342;10.096;2024-01-15T11:52:25;10.23;;;3.37;;
1380;SDS011;684;48.342;10.096;2024-01-15T11:54:58;6.30;;;2.90;;
1380;SDS011;684;48.342;10.096;2024-01-15T11:57:37;7.37;;;3.20;;
1380;SDS011;684;48.342;10.096;2024-01-15T12:00:10;6.53;;;2.50;;
1380;SDS011;684;48.342;10.096;2024-01-15T12:02:38;7.70;;;3.20;;
1380;SDS011;684;48.342;10.096;2024-01-15T12:05:06;6.07;;;3.20;;
1380;SDS011;684;48.342;10.096;2024-01-15T12:07:33;6.50;;;3.33;;
1380;SDS011;684;48.342;10.096;2024-01-15T12:10:00;6.43;;;2.67;;
1380;SDS011;684;48.342;10.096;2024-01-15T12:12:29;6.27;;;2.87;;
1380;SDS011;684;48.342;10.096;2024-01-15T12:15:04;5.73;;;2.97;;
1380;SDS011;684;48.342;10.096;2024-01-15T12:17:32;6.53;;;3.00;;
1380;SDS011;684;48.342;10.096;2024-01-15T12:19:59;6.20;;;3.33;;
1380;SDS011;684;48.342;10.096;2024-01-15T12:22:26;6.27;;;3.70;;
1380;SDS011;684;48.342;10.096;2024-01-15T12:24:53;5.27;;;2.53;;
1380;SDS011;684;48.342;10.096;2024-01-15T12:27:20;7.77;;;4.50;;
1380;SDS011;684;48.342;10.096;2024-01-15T12:29:48;8.13;;;3.33;;
1380;SDS011;684;48.342;10.096;2024-01-15T12:32:14;7.67;;;3.63;;
1380;SDS011;684;48.342;10.096;2024-01-15T12:34:43;6.13;;;3.20;;
1380;SDS011;684;48.342;10.096;2024-01-15T12:37:10;5.63;;;3.10;;
1380;SDS011;684;48.342;10.096;2024-01-15T12:39:37;6.40;;;3.27;;
1380;SDS011;684;48.342;10.096;2024-01-15T12:42:04;8.50;;;4.10;;
1380;SDS011;684;48.342;10.096;2024-01-15T12:44:31;9.60;;;4.90;;
1380;SDS011;684;48.342;10.096;2024-01-15T12:46:57;7.47;;;4.00;;
1380;SDS011;684;48.342;10.096;2024-01-15T12:49:24;7.93;;;3.73;;
1380;SDS011;684;48.342;10.096;2024-01-15T12:51:53;10.33;;;5.10;;
1380;SDS011;684;48.342;10.096;2024-01-15T12:54:20;11.30;;;5.20;;
1380;SDS011;684;48.342;10.096;2024-01-15T12:56:48;11.30;;;4.97;;
1380;SDS011;684;48.342;10.096;2024-01-15T12:59:15;9.73;;;5.07;;
1380;SDS011;684;48.342;10.096;2024-01-15T13:01:42;10.63;;;5.37;;
1380;SDS011;684;48.342;10.096;2024-01-15T13:04:09;9.40;;;4.50;;
1380;SDS011;684;48.342;10.096;2024-01-15T13:06:36;8.60;;;5.07;;
1380;SDS011;684;48.342;10.096;2024-01-15T13:09:04;8.30;;;4.80;;
1380;SDS011;684;48.342;10.096;2024-01-15T13:11:31;9.10;;;4.67;;
1380;SDS011;684;48.342;10.096;2024-01-15T13:13:58;9.43;;;4.83;;
1380;SDS011;684;48.342;10.096;2024-01-15T13:16:25;10.13;;;4.93;;
1380;SDS011;684;48.342;10.096;2024-01-15T13:18:54;8.93;;;5.00;;
1380;SDS011;684;48.342;10.096;2024-01-15T13:21:21;10.00;;;4.20;;
1380;SDS011;684;48.342;10.096;2024-01-15T13:23:48;9.57;;;4.97;;
1380;SDS011;684;48.342;10.096;2024-01-15T13:26:16;9.80;;;4.90;;
1380;SDS011;684;48.342;10.096;2024-01-15T13:28:44;11.10;;;5.50;;
1380;SDS011;684;48.342;10.096;2024-01-15T13:31:11;9.33;;;4.67;;
1380;SDS011;684;48.342;10.096;2024-01-15T13:33:38;9.63;;;5.23;;
1380;SDS011;684;48.342;10.096;2024-01-15T13:36:05;8.23;;;4.63;;
1380;SDS011;684;48.342;10.096;2024-01-15T13:38:35;8.97;;;4.20;;
1380;SDS011;684;48.342;10.096;2024-01-15T13:41:03;12.47;;;6.70;;
1380;SDS011;684;48.342;10.096;2024-01-15T13:43:32;10.33;;;5.13;;
1380;SDS011;684;48.342;10.096;2024-01-15T13:45:59;11.63;;;4.70;;
1380;SDS011;684;48.342;10.096;2024-01-15T13:48:29;9.23;;;4.33;;
1380;SDS011;684;48.342;10.096;2024-01-15T13:50:56;9.57;;;4.77;;
1380;SDS011;684;48.342;10.096;2024-01-15T13:53:24;10.23;;;4.93;;
1380;SDS011;684;48.342;10.096;2024-01-15T13:55:51;7.83;;;3.50;;
1380;SDS011;684;48.342;10.096;2024-01-15T13:58:18;7.83;;;4.43;;
1380;SDS011;684;48.342;10.096;2024-01-15T14:00:48;7.60;;;3.27;;
1380;SDS011;684;48.342;10.096;2024-01-15T14:03:15;8.70;;;4.73;;
1380;SDS011;684;48.342;10.096;2024-01-15T14:05:42;6.83;;;3.73;;
1380;SDS011;684;48.342;10.096;2024-01-15T14:08:09;6.60;;;2.93;;
1380;SDS011;684;48.342;10.096;2024-01-15T14:10:35;6.50;;;2.90;;
1380;SDS011;684;48.342;10.096;2024-01-15T14:13:03;6.10;;;3.37;;
1380;SDS011;684;48.342;10.096;2024-01-15T14:15:30;7.80;;;3.30;;
1380;SDS011;684;48.342;10.096;2024-01-15T14:17:58;7.27;;;3.10;;
1380;SDS011;684;48.342;10.096;2024-01-15T14:20:26;5.80;;;2.73;;
1380;SDS011;684;48.342;10.096;2024-01-15T14:22:52;6.00;;;2.80;;
1380;SDS011;684;48.342;10.096;2024-01-15T14:25:19;5.70;;;2.50;;
1380;SDS011;684;48.342;10.096;2024-01-15T14:27:46;6.00;;;2.63;;
1380;SDS011;684;48.342;10.096;2024-01-15T14:30:13;6.97;;;3.00;;
1380;SDS011;684;48.342;10.096;2024-01-15T14:32:41;5.17;;;2.30;;
1380;SDS011;684;48.342;10.096;2024-01-15T14:35:09;4.83;;;2.50;;
1380;SDS011;684;48.342;10.096;2024-01-15T14:37:36;5.53;;;2.30;;
1380;SDS011;684;48.342;10.096;2024-01-15T14:40:03;6.00;;;2.80;;
1380;SDS011;684;48.342;10.096;2024-01-15T14:42:32;7.13;;;3.10;;
1380;SDS011;684;48.342;10.096;2024-01-15T14:44:59;6.70;;;2.47;;
1380;SDS011;684;48.342;10.096;2024-01-15T14:47:26;4.83;;;2.20;;
1380;SDS011;684;48.342;10.096;2024-01-15T14:49:54;6.23;;;2.60;;
1380;SDS011;684;48.342;10.096;2024-01-15T14:52:23;12.23;;;3.00;;
1380;SDS011;684;48.342;10.096;2024-01-15T14:54:50;5.73;;;2.93;;
1380;SDS011;684;48.342;10.096;2024-01-15T14:57:16;5.93;;;2.73;;
1380;SDS011;684;48.342;10.096;2024-01-15T14:59:43;7.47;;;3.80;;
1380;SDS011;684;48.342;10.096;2024-01-15T15:02:10;7.33;;;3.60;;
1380;SDS011;684;48.342;10.096;2024-01-15T15:04:37;7.20;;;3.40;;
1380;SDS011;684;48.342;10.096;2024-01-15T15:07:04;7.17;;;3.27;;
1380;SDS011;684;48.342;10.096;2024-01-15T15:09:33;7.13;;;2.60;;